createdAt,value
2019-03-10T00:00:08.685Z,41.46
2019-03-10T00:01:08.662Z,41.55
2019-03-10T00:02:10.442Z,41.36
2019-03-10T00:03:08.630Z,41.46
2019-03-10T00:04:08.641Z,41.66
2019-03-10T00:05:08.625Z,41.36
2019-03-10T00:06:08.608Z,41.46
2019-03-10T00:07:08.585Z,40.95
2019-03-10T00:08:08.575Z,40.95
2019-03-10T00:09:08.570Z,41.66
2019-03-10T00:10:08.555Z,41.46
2019-03-10T00:11:08.558Z,41.46
2019-03-10T00:12:08.529Z,40.95
2019-03-10T00:13:08.520Z,41.46
2019-03-10T00:14:08.507Z,41.27
2019-03-10T00:15:08.541Z,41.25
2019-03-10T00:16:08.514Z,41.55
2019-03-10T00:17:08.487Z,41.55
2019-03-10T00:18:08.462Z,40.95
2019-03-10T00:19:08.454Z,40.95
2019-03-10T00:20:08.439Z,40.75
2019-03-10T00:21:08.444Z,41.25
2019-03-10T00:22:08.419Z,41.46
2019-03-10T00:23:08.440Z,41.46
2019-03-10T00:24:08.397Z,40.75
2019-03-10T00:25:08.392Z,40.95
2019-03-10T00:26:08.410Z,41.25
2019-03-10T00:27:08.361Z,41.46
2019-03-10T00:28:08.358Z,41.75
2019-03-10T00:29:08.339Z,40.95
2019-03-10T00:30:08.328Z,41.55
2019-03-10T00:31:08.334Z,41.25
2019-03-10T00:32:08.310Z,41.55
2019-03-10T00:33:08.300Z,41.05
2019-03-10T00:34:08.290Z,40.95
2019-03-10T00:35:08.278Z,40.95
2019-03-10T00:36:08.274Z,41.46
2019-03-10T00:37:08.249Z,41.05
2019-03-10T00:38:08.241Z,40.95
2019-03-10T00:39:08.252Z,41.46
2019-03-10T00:40:08.216Z,40.95
2019-03-10T00:41:08.219Z,41.05
2019-03-10T00:42:08.194Z,41.46
2019-03-10T00:43:08.182Z,41.55
2019-03-10T00:44:08.169Z,41.75
2019-03-10T00:45:08.197Z,41.05
2019-03-10T00:46:08.167Z,40.86
2019-03-10T00:47:08.135Z,41.46
2019-03-10T00:48:08.138Z,41.25
2019-03-10T00:49:08.145Z,40.95
2019-03-10T00:50:08.111Z,41.55
2019-03-10T00:51:08.110Z,41.46
2019-03-10T00:52:08.080Z,41.25
2019-03-10T00:53:08.072Z,41.25
2019-03-10T00:54:08.097Z,40.95
2019-03-10T00:55:08.047Z,41.46
2019-03-10T00:56:08.046Z,41.05
2019-03-10T00:57:08.023Z,41.16
2019-03-10T00:58:08.014Z,41.25
2019-03-10T00:59:08.011Z,41.25
2019-03-10T01:00:07.990Z,41.25
2019-03-10T01:01:07.991Z,41.25
2019-03-10T01:02:07.987Z,41.25
2019-03-10T01:03:07.959Z,41.05
2019-03-10T01:04:07.945Z,41.05
2019-03-10T01:05:07.951Z,41.05
2019-03-10T01:06:07.937Z,41.25
2019-03-10T01:07:07.918Z,41.08
2019-03-10T01:08:07.919Z,41.16
2019-03-10T01:09:07.889Z,41.16
2019-03-10T01:10:07.878Z,41.05
2019-03-10T01:11:07.881Z,41.36
2019-03-10T01:12:07.856Z,41.25
2019-03-10T01:13:07.889Z,41.05
2019-03-10T01:14:07.832Z,41.25
2019-03-10T01:15:07.824Z,41.05
2019-03-10T01:16:07.829Z,41.16
2019-03-10T01:17:07.805Z,41.16
2019-03-10T01:18:07.787Z,41.05
2019-03-10T01:19:07.776Z,41.05
2019-03-10T01:20:07.776Z,41.25
2019-03-10T01:21:07.767Z,41.05
2019-03-10T01:22:07.742Z,41.27
2019-03-10T01:23:07.733Z,41.05
2019-03-10T01:24:07.723Z,41.08
2019-03-10T01:25:07.724Z,41.16
2019-03-10T01:26:07.884Z,41.17
2019-03-10T01:27:07.687Z,41.27
2019-03-10T01:28:07.681Z,41.25
2019-03-10T01:29:07.671Z,41.05
2019-03-10T01:30:07.653Z,41.55
2019-03-10T01:31:07.641Z,41.05
2019-03-10T01:32:07.661Z,41.25
2019-03-10T01:33:07.623Z,41.16
2019-03-10T01:34:07.626Z,41.25
2019-03-10T01:35:07.608Z,41.25
2019-03-10T01:36:07.584Z,41.25
2019-03-10T01:37:07.588Z,41.17
2019-03-10T01:38:07.585Z,41.16
2019-03-10T01:39:07.551Z,40.95
2019-03-10T01:40:07.540Z,41.27
2019-03-10T01:41:07.531Z,41.05
2019-03-10T01:42:07.530Z,41.08
2019-03-10T01:43:07.507Z,41.05
2019-03-10T01:44:07.514Z,41.55
2019-03-10T01:45:07.494Z,41.25
2019-03-10T01:46:07.474Z,41.16
2019-03-10T01:47:07.488Z,41.16
2019-03-10T01:48:07.452Z,41.05
2019-03-10T01:49:07.438Z,41.17
2019-03-10T01:50:07.429Z,41.05
2019-03-10T01:51:07.435Z,41.17
2019-03-10T01:52:07.417Z,41.17
2019-03-10T01:53:07.394Z,41.17
2019-03-10T01:54:07.421Z,41.66
2019-03-10T01:55:07.374Z,41.16
2019-03-10T01:56:07.371Z,41.16
2019-03-10T01:57:07.399Z,41.25
2019-03-10T01:58:07.349Z,41.25
2019-03-10T01:59:07.328Z,41.25
2019-03-10T02:00:07.316Z,41.16
2019-03-10T02:01:07.304Z,41.16
2019-03-10T02:02:07.309Z,41.16
2019-03-10T02:03:07.321Z,41.16
2019-03-10T02:04:07.271Z,41.17
2019-03-10T02:05:07.264Z,41.16
2019-03-10T02:06:07.248Z,41.17
2019-03-10T02:07:07.249Z,41.08
2019-03-10T02:08:07.226Z,41.16
2019-03-10T02:09:07.215Z,41.17
2019-03-10T02:10:07.243Z,41.16
2019-03-10T02:11:07.192Z,41.16
2019-03-10T02:12:07.192Z,41.36
2019-03-10T02:13:07.170Z,41.16
2019-03-10T02:14:07.165Z,41.17
2019-03-10T02:15:07.148Z,41.58
2019-03-10T02:16:07.143Z,41.16
2019-03-10T02:17:07.137Z,41.16
2019-03-10T02:18:07.121Z,41.17
2019-03-10T02:19:07.104Z,41.17
2019-03-10T02:20:07.113Z,41.25
2019-03-10T02:21:07.083Z,41.16
2019-03-10T02:22:07.098Z,41.16
2019-03-10T02:23:07.059Z,41.27
2019-03-10T02:24:07.048Z,41.17
2019-03-10T02:25:07.035Z,41.27
2019-03-10T02:26:07.024Z,41.36
2019-03-10T02:27:07.029Z,41.17
2019-03-10T02:28:07.000Z,41.17
2019-03-10T02:29:06.996Z,41.17
2019-03-10T02:30:06.980Z,41.36
2019-03-10T02:31:06.978Z,41.17
2019-03-10T02:32:06.982Z,41.38
2019-03-10T02:33:06.963Z,41.17
2019-03-10T02:34:06.935Z,41.66
2019-03-10T02:35:06.951Z,41.17
2019-03-10T02:36:06.917Z,41.85
2019-03-10T02:37:06.923Z,41.36
2019-03-10T02:38:06.892Z,41.66
2019-03-10T02:39:06.878Z,41.16
2019-03-10T02:40:06.868Z,41.75
2019-03-10T02:41:06.868Z,41.08
2019-03-10T02:42:06.859Z,41.25
2019-03-10T02:43:06.860Z,41.25
2019-03-10T02:44:06.822Z,41.66
2019-03-10T02:45:06.814Z,41.08
2019-03-10T02:46:06.799Z,41.67
2019-03-10T02:47:06.809Z,41.67
2019-03-10T02:48:06.782Z,41.05
2019-03-10T02:49:06.767Z,41.05
2019-03-10T02:50:06.756Z,41.05
2019-03-10T02:51:06.744Z,41.67
2019-03-10T02:52:06.766Z,41.17
2019-03-10T02:53:06.736Z,40.95
2019-03-10T02:54:06.711Z,41.08
2019-03-10T02:55:06.722Z,40.88
2019-03-10T02:56:06.709Z,41.08
2019-03-10T02:57:06.687Z,41.66
2019-03-10T02:58:06.679Z,41.66
2019-03-10T02:59:06.688Z,41.67
2019-03-10T03:00:06.655Z,41.66
2019-03-10T03:01:06.633Z,40.88
2019-03-10T03:02:06.642Z,40.97
2019-03-10T03:03:06.623Z,41.16
2019-03-10T03:04:06.604Z,40.88
2019-03-10T03:05:06.684Z,40.97
2019-03-10T03:06:06.600Z,40.75
2019-03-10T03:07:06.563Z,41.05
2019-03-10T03:08:06.593Z,41.66
2019-03-10T03:09:06.542Z,41.55
2019-03-10T03:10:06.540Z,41.05
2019-03-10T03:11:06.522Z,41.08
2019-03-10T03:12:06.509Z,40.86
2019-03-10T03:13:06.519Z,41.08
2019-03-10T03:14:06.573Z,41.55
2019-03-10T03:15:06.475Z,41.66
2019-03-10T03:16:06.465Z,41.55
2019-03-10T03:17:06.450Z,40.97
2019-03-10T03:18:06.457Z,40.75
2019-03-10T03:19:06.479Z,41.55
2019-03-10T03:20:06.428Z,40.75
2019-03-10T03:21:06.407Z,41.55
2019-03-10T03:22:06.397Z,41.08
2019-03-10T03:23:06.400Z,40.95
2019-03-10T03:24:06.374Z,41.05
2019-03-10T03:25:06.366Z,40.95
2019-03-10T03:26:06.368Z,40.86
2019-03-10T03:27:06.342Z,40.97
2019-03-10T03:28:06.340Z,40.86
2019-03-10T03:29:06.319Z,41.05
2019-03-10T03:30:06.360Z,41.55
2019-03-10T03:31:06.340Z,40.88
2019-03-10T03:32:06.295Z,40.86
2019-03-10T03:33:06.288Z,40.75
2019-03-10T03:34:06.266Z,41.08
2019-03-10T03:35:06.253Z,40.75
2019-03-10T03:36:06.238Z,41.17
2019-03-10T03:37:06.231Z,40.88
2019-03-10T03:38:06.240Z,40.86
2019-03-10T03:39:06.205Z,40.95
2019-03-10T03:40:06.193Z,40.88
2019-03-10T03:41:06.188Z,41.25
2019-03-10T03:42:06.201Z,41.17
2019-03-10T03:43:06.173Z,41.17
2019-03-10T03:44:06.168Z,40.75
2019-03-10T03:45:06.139Z,40.78
2019-03-10T03:46:06.127Z,41.25
2019-03-10T03:47:06.116Z,41.16
2019-03-10T03:48:06.128Z,41.25
2019-03-10T03:49:06.097Z,41.08
2019-03-10T03:50:06.087Z,41.25
2019-03-10T03:51:06.073Z,41.17
2019-03-10T03:52:06.074Z,41.16
2019-03-10T03:53:06.061Z,41.16
2019-03-10T03:54:06.045Z,41.27
2019-03-10T03:55:06.043Z,41.17
2019-03-10T03:56:08.058Z,40.78
2019-03-10T03:57:06.007Z,41.17
2019-03-10T03:58:06.010Z,41.16
2019-03-10T03:59:05.981Z,41.17
2019-03-10T04:00:05.973Z,41.17
2019-03-10T04:01:05.958Z,41.16
2019-03-10T04:02:05.947Z,41.17
2019-03-10T04:03:05.940Z,41.08
2019-03-10T04:04:06.023Z,41.08
2019-03-10T04:05:05.927Z,41.25
2019-03-10T04:06:05.919Z,41.16
2019-03-10T04:07:05.892Z,41.17
2019-03-10T04:08:05.880Z,41.16
2019-03-10T04:09:05.881Z,41.17
2019-03-10T04:10:05.865Z,41.08
2019-03-10T04:11:05.863Z,41.27
2019-03-10T04:12:05.837Z,41.17
2019-03-10T04:13:05.824Z,41.16
2019-03-10T04:14:05.825Z,41.25
2019-03-10T04:15:05.802Z,41.17
2019-03-10T04:16:12.801Z,41.08
2019-03-10T04:17:05.781Z,41.25
2019-03-10T04:18:05.775Z,41.08
2019-03-10T04:19:05.773Z,40.75
2019-03-10T04:20:05.746Z,41.16
2019-03-10T04:21:05.736Z,41.17
2019-03-10T04:22:05.736Z,41.08
2019-03-10T04:23:05.722Z,41.05
2019-03-10T04:24:05.726Z,41.17
2019-03-10T04:25:05.690Z,40.78
2019-03-10T04:26:05.680Z,41.08
2019-03-10T04:27:05.679Z,41.27
2019-03-10T04:28:05.680Z,41.16
2019-03-10T04:29:05.662Z,41.25
2019-03-10T04:30:05.660Z,41.08
2019-03-10T04:31:05.623Z,41.08
2019-03-10T04:32:05.614Z,41.17
2019-03-10T04:33:05.611Z,41.08
2019-03-10T04:34:05.601Z,41.16
2019-03-10T04:35:05.591Z,41.08
2019-03-10T04:36:05.566Z,41.05
2019-03-10T04:37:05.557Z,41.08
2019-03-10T04:38:05.545Z,41.08
2019-03-10T04:39:05.546Z,41.17
2019-03-10T04:40:05.523Z,41.08
2019-03-10T04:41:05.525Z,41.05
2019-03-10T04:42:05.500Z,41.08
2019-03-10T04:43:05.496Z,40.97
2019-03-10T04:44:05.490Z,41.05
2019-03-10T04:45:05.470Z,40.97
2019-03-10T04:46:05.462Z,41.05
2019-03-10T04:47:05.459Z,40.97
2019-03-10T04:48:05.434Z,41.08
2019-03-10T04:49:05.449Z,41.08
2019-03-10T04:50:05.412Z,40.95
2019-03-10T04:51:05.423Z,41.08
2019-03-10T04:52:05.413Z,40.97
2019-03-10T04:53:05.375Z,40.97
2019-03-10T04:54:05.432Z,41.27
2019-03-10T04:55:09.140Z,41.08
2019-03-10T04:56:05.351Z,40.95
2019-03-10T04:57:05.341Z,41.27
2019-03-10T04:58:05.321Z,40.97
2019-03-10T04:59:05.342Z,40.95
2019-03-10T05:00:05.298Z,40.97
2019-03-10T05:01:05.305Z,41.05
2019-03-10T05:02:05.286Z,41.38
2019-03-10T05:03:05.267Z,41.08
2019-03-10T05:04:05.267Z,41.27
2019-03-10T05:05:05.257Z,41.08
2019-03-10T05:06:05.261Z,41.27
2019-03-10T05:07:05.221Z,40.88
2019-03-10T05:08:05.212Z,41.27
2019-03-10T05:09:05.198Z,41.27
2019-03-10T05:10:05.197Z,41.36
2019-03-10T05:11:05.181Z,41.17
2019-03-10T05:12:05.182Z,41.08
2019-03-10T05:13:05.158Z,40.95
2019-03-10T05:14:05.169Z,40.97
2019-03-10T05:15:05.150Z,41.38
2019-03-10T05:16:05.123Z,41.27
2019-03-10T05:17:05.110Z,41.08
2019-03-10T05:18:05.121Z,41.08
2019-03-10T05:19:05.091Z,40.97
2019-03-10T05:20:05.086Z,41.27
2019-03-10T05:21:05.068Z,41.38
2019-03-10T05:22:05.052Z,40.88
2019-03-10T05:23:05.040Z,41.27
2019-03-10T05:24:05.033Z,41.38
2019-03-10T05:25:05.044Z,40.97
2019-03-10T05:26:05.010Z,40.97
2019-03-10T05:27:05.017Z,41.08
2019-03-10T05:28:04.985Z,40.97
2019-03-10T05:29:04.973Z,41.38
2019-03-10T05:30:04.976Z,41.17
2019-03-10T05:31:04.982Z,41.27
2019-03-10T05:32:04.952Z,41.38
2019-03-10T05:33:04.928Z,41.38
2019-03-10T05:34:04.918Z,41.17
2019-03-10T05:35:04.918Z,40.78
2019-03-10T05:36:04.899Z,41.27
2019-03-10T05:37:04.906Z,41.38
2019-03-10T05:38:04.878Z,41.17
2019-03-10T05:39:04.861Z,40.78
2019-03-10T05:40:04.864Z,41.27
2019-03-10T05:41:04.844Z,41.27
2019-03-10T05:42:04.829Z,41.27
2019-03-10T05:43:04.818Z,40.97
2019-03-10T05:44:04.822Z,41.17
2019-03-10T05:45:04.805Z,40.88
2019-03-10T05:46:04.786Z,40.78
2019-03-10T05:47:04.773Z,41.17
2019-03-10T05:48:04.762Z,41.17
2019-03-10T05:49:04.751Z,40.67
2019-03-10T05:50:04.773Z,41.17
2019-03-10T05:51:04.734Z,41.27
2019-03-10T05:52:04.718Z,40.78
2019-03-10T05:53:04.718Z,40.88
2019-03-10T05:54:04.696Z,41.38
2019-03-10T05:55:05.209Z,40.88
2019-03-10T05:56:04.675Z,41.17
2019-03-10T05:57:04.667Z,40.88
2019-03-10T05:58:04.653Z,40.78
2019-03-10T05:59:04.660Z,40.58
2019-03-10T06:00:04.678Z,41.17
2019-03-10T06:01:04.618Z,41.16
2019-03-10T06:02:04.604Z,40.78
2019-03-10T06:03:04.603Z,40.67
2019-03-10T06:04:04.580Z,41.17
2019-03-10T06:05:06.030Z,41.17
2019-03-10T06:06:04.580Z,40.37
2019-03-10T06:07:04.549Z,40.78
2019-03-10T06:08:04.540Z,40.78
2019-03-10T06:09:04.527Z,41.17
2019-03-10T06:10:04.521Z,40.78
2019-03-10T06:11:04.525Z,40.78
2019-03-10T06:12:04.498Z,41.17
2019-03-10T06:13:04.506Z,40.67
2019-03-10T06:14:04.509Z,40.67
2019-03-10T06:15:04.459Z,41.17
2019-03-10T06:16:04.460Z,40.88
2019-03-10T06:17:04.435Z,40.58
2019-03-10T06:18:13.100Z,41.17
2019-03-10T06:19:05.412Z,41.17
2019-03-10T06:20:04.415Z,40.37
2019-03-10T06:21:04.411Z,40.67
2019-03-10T06:22:04.379Z,41.17
2019-03-10T06:23:04.392Z,40.78
2019-03-10T06:24:04.357Z,40.58
2019-03-10T06:25:04.398Z,40.78
2019-03-10T06:26:04.374Z,40.67
2019-03-10T06:27:04.323Z,40.78
2019-03-10T06:28:04.312Z,41.08
2019-03-10T06:29:04.314Z,40.58
2019-03-10T06:30:04.290Z,41.17
2019-03-10T06:31:04.291Z,41.08
2019-03-10T06:32:04.300Z,40.67
2019-03-10T06:33:04.256Z,40.67
2019-03-10T06:34:04.246Z,40.47
2019-03-10T06:35:04.240Z,41.08
2019-03-10T06:36:04.259Z,40.58
2019-03-10T06:37:04.216Z,41.17
2019-03-10T06:38:04.200Z,40.47
2019-03-10T06:39:04.200Z,40.67
2019-03-10T06:40:04.185Z,40.88
2019-03-10T06:41:04.208Z,40.97
2019-03-10T06:42:04.154Z,40.97
2019-03-10T06:43:04.144Z,40.58
2019-03-10T06:44:04.132Z,40.97
2019-03-10T06:45:04.126Z,40.97
2019-03-10T06:46:04.144Z,40.58
2019-03-10T06:47:04.108Z,40.78
2019-03-10T06:48:04.095Z,40.78
2019-03-10T06:49:04.076Z,40.67
2019-03-10T06:50:04.067Z,41.08
2019-03-10T06:51:04.069Z,41.08
2019-03-10T06:52:04.043Z,41.08
2019-03-10T06:53:04.049Z,41.08
2019-03-10T06:54:04.021Z,40.67
2019-03-10T06:55:04.011Z,40.47
2019-03-10T06:56:04.009Z,40.58
2019-03-10T06:57:03.990Z,40.78
2019-03-10T06:58:03.979Z,41.08
2019-03-10T06:59:04.003Z,40.88
2019-03-10T07:00:03.953Z,40.37
2019-03-10T07:01:04.020Z,41.08
2019-03-10T07:02:03.936Z,40.88
2019-03-10T07:03:03.924Z,41.08
2019-03-10T07:04:03.911Z,41.08
2019-03-10T07:05:03.899Z,41.08
2019-03-10T07:06:03.888Z,40.88
2019-03-10T07:07:03.911Z,40.78
2019-03-10T07:08:03.864Z,40.78
2019-03-10T07:09:03.853Z,41.08
2019-03-10T07:10:03.858Z,41.08
2019-03-10T07:11:03.831Z,40.88
2019-03-10T07:12:03.841Z,40.97
2019-03-10T07:13:03.833Z,40.97
2019-03-10T07:14:03.800Z,40.67
2019-03-10T07:15:03.821Z,40.88
2019-03-10T07:16:03.781Z,41.08
2019-03-10T07:17:03.774Z,41.08
2019-03-10T07:18:03.755Z,40.67
2019-03-10T07:19:03.764Z,40.88
2019-03-10T07:20:03.733Z,40.67
2019-03-10T07:21:03.720Z,40.78
2019-03-10T07:22:03.733Z,40.67
2019-03-10T07:23:03.695Z,40.67
2019-03-10T07:24:03.709Z,40.67
2019-03-10T07:25:03.681Z,40.78
2019-03-10T07:26:03.671Z,40.97
2019-03-10T07:27:03.682Z,40.88
2019-03-10T07:28:03.643Z,40.67
2019-03-10T07:29:03.642Z,40.97
2019-03-10T07:30:03.621Z,40.88
2019-03-10T07:31:03.649Z,40.88
2019-03-10T07:32:03.615Z,40.67
2019-03-10T07:33:03.613Z,40.78
2019-03-10T07:34:03.574Z,40.78
2019-03-10T07:35:03.562Z,40.67
2019-03-10T07:36:03.553Z,40.78
2019-03-10T07:37:03.607Z,40.88
2019-03-10T07:38:03.528Z,40.67
2019-03-10T07:39:03.532Z,40.78
2019-03-10T07:40:03.506Z,40.67
2019-03-10T07:41:03.496Z,40.78
2019-03-10T07:42:03.767Z,40.78
2019-03-10T07:43:03.537Z,40.47
2019-03-10T07:44:03.469Z,40.97
2019-03-10T07:45:03.452Z,40.67
2019-03-10T07:46:03.439Z,40.67
2019-03-10T07:47:03.476Z,40.88
2019-03-10T07:48:03.422Z,40.67
2019-03-10T07:49:03.405Z,40.67
2019-03-10T07:50:03.407Z,40.67
2019-03-10T07:51:03.383Z,40.78
2019-03-10T07:52:03.384Z,40.58
2019-03-10T07:53:03.360Z,40.78
2019-03-10T07:54:03.360Z,40.88
2019-03-10T07:55:03.340Z,40.88
2019-03-10T07:56:03.328Z,40.67
2019-03-10T07:57:03.350Z,40.58
2019-03-10T07:58:03.304Z,40.67
2019-03-10T07:59:03.305Z,40.88
2019-03-10T08:00:03.282Z,40.67
2019-03-10T08:01:03.271Z,40.67
2019-03-10T08:02:03.270Z,40.67
2019-03-10T08:03:03.257Z,40.58
2019-03-10T08:04:03.239Z,40.78
2019-03-10T08:05:03.229Z,40.88
2019-03-10T08:06:03.216Z,40.88
2019-03-10T08:07:03.227Z,40.78
2019-03-10T08:08:03.193Z,40.69
2019-03-10T08:09:03.185Z,40.97
2019-03-10T08:10:03.177Z,40.88
2019-03-10T08:11:03.179Z,40.58
2019-03-10T08:12:03.152Z,40.67
2019-03-10T08:13:03.147Z,40.88
2019-03-10T08:14:03.131Z,40.88
2019-03-10T08:15:03.123Z,40.88
2019-03-10T08:16:03.112Z,41.08
2019-03-10T08:17:03.101Z,40.67
2019-03-10T08:18:03.094Z,40.88
2019-03-10T08:19:03.072Z,40.78
2019-03-10T08:20:03.058Z,40.67
2019-03-10T08:21:03.047Z,40.78
2019-03-10T08:22:03.039Z,40.78
2019-03-10T08:23:03.042Z,40.88
2019-03-10T08:24:03.019Z,40.78
2019-03-10T08:25:03.001Z,40.88
2019-03-10T08:26:02.993Z,41.08
2019-03-10T08:27:02.987Z,41.08
2019-03-10T08:28:02.995Z,40.97
2019-03-10T08:29:02.977Z,41.08
2019-03-10T08:30:02.950Z,41.08
2019-03-10T08:31:02.940Z,40.97
2019-03-10T08:32:09.975Z,40.67
2019-03-10T08:33:02.942Z,40.78
2019-03-10T08:34:09.914Z,40.67
2019-03-10T08:35:09.968Z,40.47
2019-03-10T08:36:02.879Z,40.47
2019-03-10T08:37:02.867Z,40.78
2019-03-10T08:38:02.873Z,40.67
2019-03-10T08:39:02.844Z,41.09
2019-03-10T08:40:02.833Z,40.67
2019-03-10T08:41:02.987Z,40.58
2019-03-10T08:42:02.987Z,41.17
2019-03-10T08:43:02.967Z,41.27
2019-03-10T08:44:02.832Z,40.88
2019-03-10T08:45:02.845Z,41.27
2019-03-10T08:46:02.815Z,41.17
2019-03-10T08:47:02.760Z,41.27
2019-03-10T08:48:02.833Z,41.27
2019-03-10T08:49:02.757Z,40.80
2019-03-10T08:50:02.861Z,41.17
2019-03-10T08:51:02.717Z,41.17
2019-03-10T08:52:02.745Z,40.78
2019-03-10T08:53:02.722Z,41.17
2019-03-10T08:54:02.744Z,40.88
2019-03-10T08:55:02.698Z,40.88
2019-03-10T08:56:05.522Z,40.88
2019-03-10T08:57:02.656Z,40.67
2019-03-10T08:58:02.647Z,40.78
2019-03-10T08:59:02.691Z,40.97
2019-03-10T09:00:02.661Z,40.88
2019-03-10T09:01:02.616Z,40.58
2019-03-10T09:02:02.688Z,40.67
2019-03-10T09:03:02.625Z,40.67
2019-03-10T09:04:02.924Z,41.08
2019-03-10T09:05:02.627Z,40.58
2019-03-10T09:06:02.585Z,41.19
2019-03-10T09:07:02.583Z,40.88
2019-03-10T09:08:02.530Z,40.88
2019-03-10T09:09:02.569Z,41.08
2019-03-10T09:10:02.523Z,40.58
2019-03-10T09:11:02.520Z,41.19
2019-03-10T09:12:02.494Z,40.58
2019-03-10T09:13:02.502Z,41.08
2019-03-10T09:14:02.512Z,40.89
2019-03-10T09:15:02.476Z,40.88
2019-03-10T09:16:02.557Z,40.78
2019-03-10T09:17:02.431Z,40.89
2019-03-10T09:18:02.445Z,40.97
2019-03-10T09:19:02.455Z,40.58
2019-03-10T09:20:02.433Z,41.09
2019-03-10T09:21:02.399Z,41.09
2019-03-10T09:22:02.379Z,41.08
2019-03-10T09:23:02.378Z,41.17
2019-03-10T09:24:02.399Z,40.67
2019-03-10T09:25:02.410Z,40.58
2019-03-10T09:26:02.371Z,40.89
2019-03-10T09:27:02.343Z,41.17
2019-03-10T09:28:02.321Z,40.67
2019-03-10T09:29:02.329Z,40.78
2019-03-10T09:30:02.311Z,41.08
2019-03-10T09:31:02.294Z,40.97
2019-03-10T09:32:02.291Z,40.88
2019-03-10T09:33:02.342Z,40.97
2019-03-10T09:34:02.324Z,40.97
2019-03-10T09:35:02.290Z,40.97
2019-03-10T09:36:02.275Z,40.17
2019-03-10T09:37:02.261Z,40.88
2019-03-10T09:38:03.793Z,41.08
2019-03-10T09:39:02.229Z,40.78
2019-03-10T09:40:02.228Z,40.80
2019-03-10T09:41:02.213Z,40.67
2019-03-10T09:42:02.158Z,41.08
2019-03-10T09:43:02.171Z,40.97
2019-03-10T09:44:03.888Z,40.97
2019-03-10T09:45:02.137Z,40.97
2019-03-10T09:46:02.122Z,40.78
2019-03-10T09:47:02.098Z,40.88
2019-03-10T09:48:02.132Z,40.88
2019-03-10T09:49:02.092Z,40.97
2019-03-10T09:50:02.096Z,40.97
2019-03-10T09:51:02.054Z,40.97
2019-03-10T09:52:02.062Z,41.08
2019-03-10T09:53:02.071Z,40.58
2019-03-10T09:54:02.064Z,40.97
2019-03-10T09:55:02.043Z,41.08
2019-03-10T09:56:01.998Z,40.67
2019-03-10T09:57:02.013Z,40.78
2019-03-10T09:58:02.018Z,40.97
2019-03-10T09:59:01.963Z,40.78
2019-03-10T10:00:01.985Z,40.67
2019-03-10T10:01:01.988Z,40.78
2019-03-10T10:02:01.948Z,41.08
2019-03-10T10:03:01.927Z,41.08
2019-03-10T10:04:02.041Z,40.97
2019-03-10T10:05:01.935Z,40.97
2019-03-10T10:06:01.907Z,40.97
2019-03-10T10:07:02.178Z,40.58
2019-03-10T10:08:01.865Z,41.17
2019-03-10T10:09:01.857Z,41.08
2019-03-10T10:10:01.853Z,41.08
2019-03-10T10:11:02.635Z,40.88
2019-03-10T10:12:12.711Z,40.58
2019-03-10T10:13:02.821Z,41.17
2019-03-10T10:14:01.950Z,40.67
2019-03-10T10:15:01.805Z,41.27
2019-03-10T10:16:01.813Z,40.67
2019-03-10T10:17:01.770Z,41.27
2019-03-10T10:18:01.751Z,41.38
2019-03-10T10:19:01.753Z,41.27
2019-03-10T10:20:01.773Z,40.97
2019-03-10T10:21:01.770Z,40.97
2019-03-10T10:22:01.886Z,41.27
2019-03-10T10:23:01.706Z,41.08
2019-03-10T10:24:01.721Z,41.38
2019-03-10T10:25:01.726Z,40.97
2019-03-10T10:26:01.767Z,40.97
2019-03-10T10:27:01.692Z,41.27
2019-03-10T10:28:01.665Z,40.97
2019-03-10T10:29:01.752Z,41.08
2019-03-10T10:30:01.672Z,41.38
2019-03-10T10:31:01.602Z,41.08
2019-03-10T10:32:01.607Z,41.27
2019-03-10T10:33:01.632Z,41.27
2019-03-10T10:34:01.630Z,41.27
2019-03-10T10:35:01.722Z,40.97
2019-03-10T10:36:01.645Z,41.27
2019-03-10T10:37:01.562Z,41.08
2019-03-10T10:38:01.525Z,41.27
2019-03-10T10:39:01.620Z,41.27
2019-03-10T10:40:01.533Z,41.08
2019-03-10T10:41:01.559Z,41.16
2019-03-10T10:42:01.501Z,41.08
2019-03-10T10:43:01.495Z,41.17
2019-03-10T10:44:01.505Z,40.97
2019-03-10T10:45:01.474Z,40.95
2019-03-10T10:46:01.494Z,41.08
2019-03-10T10:47:01.427Z,41.55
2019-03-10T10:48:01.450Z,41.05
2019-03-10T10:49:01.428Z,41.05
2019-03-10T10:50:01.391Z,40.88
2019-03-10T10:51:01.428Z,40.75
2019-03-10T10:52:01.442Z,40.95
2019-03-10T10:53:01.358Z,41.05
2019-03-10T10:54:01.354Z,41.67
2019-03-10T10:55:01.368Z,41.67
2019-03-10T10:56:01.340Z,41.67
2019-03-10T10:57:01.395Z,41.66
2019-03-10T10:58:01.311Z,41.17
2019-03-10T10:59:01.331Z,41.17
2019-03-10T11:00:01.317Z,41.17
2019-03-10T11:01:01.318Z,41.16
2019-03-10T11:02:01.274Z,41.16
2019-03-10T11:03:01.273Z,41.17
2019-03-10T11:04:01.253Z,41.25
2019-03-10T11:05:01.233Z,41.08
2019-03-10T11:06:01.266Z,41.47
2019-03-10T11:07:01.203Z,41.08
2019-03-10T11:08:01.213Z,41.08
2019-03-10T11:09:02.999Z,41.05
2019-03-10T11:10:01.209Z,41.58
2019-03-10T11:11:01.190Z,41.08
2019-03-10T11:12:01.171Z,41.47
2019-03-10T11:13:01.135Z,41.46
2019-03-10T11:14:01.162Z,41.85
2019-03-10T11:15:01.124Z,41.85
2019-03-10T11:16:01.144Z,41.96
2019-03-10T11:17:01.088Z,41.55
2019-03-10T11:18:08.863Z,41.75
2019-03-10T11:19:02.100Z,41.55
2019-03-10T11:20:01.061Z,41.66
2019-03-10T11:21:01.106Z,41.66
2019-03-10T11:22:01.132Z,41.66
2019-03-10T11:23:01.011Z,41.36
2019-03-10T11:24:01.010Z,41.55
2019-03-10T11:25:01.060Z,41.55
2019-03-10T11:26:01.018Z,41.75
2019-03-10T11:27:01.093Z,41.55
2019-03-10T11:28:01.056Z,41.36
2019-03-10T11:29:03.791Z,41.36
2019-03-10T11:30:00.934Z,41.36
2019-03-10T11:31:01.475Z,41.85
2019-03-10T11:32:00.935Z,41.55
2019-03-10T11:33:00.976Z,41.75
2019-03-10T11:34:01.059Z,41.66
2019-03-10T11:35:00.936Z,41.75
2019-03-10T11:36:00.954Z,41.66
2019-03-10T11:37:00.903Z,41.75
2019-03-10T11:38:00.881Z,41.75
2019-03-10T11:39:00.933Z,42.05
2019-03-10T11:40:00.976Z,41.66
2019-03-10T11:41:00.886Z,42.05
2019-03-10T11:42:00.919Z,42.35
2019-03-10T11:43:00.836Z,42.35
2019-03-10T11:44:00.778Z,42.35
2019-03-10T11:45:00.764Z,42.43
2019-03-10T11:46:00.750Z,42.46
2019-03-10T11:47:00.757Z,42.35
2019-03-10T11:48:00.737Z,42.15
2019-03-10T11:49:00.715Z,42.25
2019-03-10T11:50:00.700Z,42.25
2019-03-10T11:51:00.695Z,42.35
2019-03-10T11:52:01.482Z,42.25
2019-03-10T11:53:00.770Z,42.46
2019-03-10T11:54:00.692Z,42.15
2019-03-10T11:55:00.684Z,41.46
2019-03-10T11:56:00.659Z,41.74
2019-03-10T11:57:00.694Z,41.74
2019-03-10T11:58:00.676Z,41.74
2019-03-10T11:59:00.775Z,41.75
2019-03-10T12:00:00.663Z,42.03
2019-03-10T12:01:00.665Z,41.46
2019-03-10T12:02:00.705Z,41.75
2019-03-10T12:03:00.588Z,42.03
2019-03-10T12:04:00.599Z,42.43
2019-03-10T12:05:00.614Z,42.43
2019-03-10T12:06:00.557Z,41.74
2019-03-10T12:07:00.699Z,42.35
2019-03-10T12:08:00.596Z,42.33
2019-03-10T12:09:00.554Z,42.24
2019-03-10T12:10:00.638Z,42.13
2019-03-10T12:11:00.498Z,41.93
2019-03-10T12:12:00.559Z,42.13
2019-03-10T12:13:00.485Z,42.24
2019-03-10T12:14:00.468Z,42.13
2019-03-10T12:15:00.525Z,42.33
2019-03-10T12:16:00.477Z,42.33
2019-03-10T12:17:00.441Z,42.24
2019-03-10T12:18:00.437Z,42.33
2019-03-10T12:19:00.411Z,42.25
2019-03-10T12:20:00.509Z,42.33
2019-03-10T12:21:00.407Z,42.13
2019-03-10T12:22:00.473Z,42.33
2019-03-10T12:23:00.346Z,42.35
2019-03-10T12:24:00.400Z,42.33
2019-03-10T12:25:00.425Z,42.24
2019-03-10T12:26:00.466Z,42.13
2019-03-10T12:27:00.377Z,42.13
2019-03-10T12:28:00.334Z,42.13
2019-03-10T12:29:00.413Z,42.33
2019-03-10T12:30:00.498Z,42.13
2019-03-10T12:31:00.248Z,42.13
2019-03-10T12:32:00.362Z,42.43
2019-03-10T12:33:00.221Z,42.43
2019-03-10T12:34:00.210Z,42.24
2019-03-10T12:35:00.418Z,41.96
2019-03-10T12:36:00.188Z,41.93
2019-03-10T12:37:00.207Z,41.93
2019-03-10T12:38:00.166Z,42.13
2019-03-10T12:39:00.153Z,42.03
2019-03-10T12:40:00.508Z,41.93
2019-03-10T12:41:00.289Z,41.93
2019-03-10T12:42:00.167Z,42.03
2019-03-10T12:43:00.181Z,42.03
2019-03-10T12:44:00.244Z,42.03
2019-03-10T12:45:00.935Z,42.03
2019-03-10T12:46:00.086Z,41.83
2019-03-10T12:47:00.145Z,42.24
2019-03-10T12:48:00.074Z,42.13
2019-03-10T12:49:00.045Z,42.33
2019-03-10T12:50:00.037Z,42.13
2019-03-10T12:51:00.027Z,42.24
2019-03-10T12:52:00.111Z,41.93